Beverly, New Jersey
Current Conditions -  °F | °C
As of 7:54 PM on Tuesday 21 Oct 2014 (Local Time) from KPNE Reporting Station
Overcast Overcast  
Wind Chill: 64°   Ceiling: 8000
Heat Index: 64°   Visibility: 10mi
Dew Point: 48°   Wind: 10mph
Humidity: 56%   Direction: 10°N
Pressure: 29.86"   Gusts: NA
Location:  40.07°N, 74.92°W
Report Text: KPNE 212354Z 01009KT 10SM FEW050 OVC080 18/09 A2986 RMK AO2 SLP110 T01780089 10217 20167 53013 $
Loading
Personal Weather Stations






























Interactive Weather Map
Tropical Storm Tracking
New forecast layout! Learn more

10-Day Weather Forecast

Advertisements
Track Severe Weather on mobile